New Albany, Ohio
Current Conditions -  °F | °C
As of 1:51 AM on Thursday 23 Oct 2014 (Local Time) from KCMH Reporting Station
Scattered Clouds Scattered Clouds  
Wind Chill: 42°   Ceiling: Unl
Heat Index: 46°   Visibility: 10mi
Dew Point: 40°   Wind: 8mph
Humidity: 79%   Direction: 330°NNW
Pressure: 30.23"   Gusts: NA
Location:  40.08°N, 82.81°W
Report Text: KCMH 230551Z 33007KT 10SM SCT035 08/04 A3023 RMK AO2 SLP238 T00780044 10100 20078 56007
Loading
Personal Weather Stations






























Interactive Weather Map
Tropical Storm Tracking
New forecast layout! Learn more

10-Day Weather Forecast

Advertisements
Track Severe Weather on mobile